OIZI  Iran Shahr  Airport

Iran

Add Bookmark
Status
Operational
Latitude Longitude
27° 14' 9" N 60° 43' 12" E
27.236099 60.720001
Local (DST + 5) UTC (GMT + 4)
Mar 4, 2015 11:57 Mar 4, 2015 08:27
Sunrise-Sunset Local UTC
Begin Civil Twilight 05:23 01:53
Sunrise 05:47 02:17
Sunset 05:30 14:00
End Civil Twilight 05:53 14:23

Current Weather

METAR Observed VFR
OIZI 040800Z 24004KT CAVOK 23/02 Q1012 Wed, Mar 4, 2015 @ 08:00 UTC
(27 Minutes ago)
Visual Flight Rules
Wind Visibility Clouds Conditions
240° at 4 knots (7 kph) 10 km or more
  • Clear skies
  • No significant weather
Temperatures Readings Precipitation
Current Temp 23°C (73°F)
Dewpoint 2°C (36°F)
Humidity 25%
Altimeter 29.88"Hg
Sea Level Pressure 1012mb
Field Elevation 1938.98'
None Recorded

24 Hour Weather History

Loading
-

24 Hour Weather Graphs

Loading
-

CheckWX.com is intended as a tool to help pilots better visualize weather data. It is not intended as a substitute for an official weather briefing obtained from a Flight Service Station. CheckWX.com does not meet the FAA requirements for an official pre-flight weather briefing. Therefore, it's important that pilots still call and obtain an official FSS pre-flight weather briefing.